Terminal Aerodrome Forecast
Issued by NWS

Home | Current Version | Previous Version | Text Only | Print | Product List | Glossary On
Versions: 1 2 3 4 5 6 7 8 9 10 11 12
892
FTUS43 KPAH 111131
TAFCGI
TAF
KCGI 111131Z 1112/1212 VRB03KT P6SM SCT150
     FM111400 20007KT P6SM SCT100
     FM111800 23013G21KT P6SM BKN250
     FM112200 28012G20KT P6SM SCT025
     FM120200 30010KT P6SM BKN025=

USA.gov is the U.S. government's official web portal to all federal, state and local government web resources and services.